sensor_id;sensor_type;location;lat;lon;timestamp;P1;durP1;ratioP1;P2;durP2;ratioP2
77798;SDS011;66989;50.426;15.352;2023-11-19T00:02:07;13.55;;;7.55;;
77798;SDS011;66989;50.426;15.352;2023-11-19T00:04:36;10.68;;;6.75;;
77798;SDS011;66989;50.426;15.352;2023-11-19T00:07:02;9.90;;;6.70;;
77798;SDS011;66989;50.426;15.352;2023-11-19T00:09:29;12.65;;;7.50;;
77798;SDS011;66989;50.426;15.352;2023-11-19T00:11:55;10.55;;;7.18;;
77798;SDS011;66989;50.426;15.352;2023-11-19T00:14:20;12.50;;;7.82;;
77798;SDS011;66989;50.426;15.352;2023-11-19T00:16:45;9.80;;;6.72;;
77798;SDS011;66989;50.426;15.352;2023-11-19T00:19:11;9.53;;;6.37;;
77798;SDS011;66989;50.426;15.352;2023-11-19T00:21:36;12.35;;;6.45;;
77798;SDS011;66989;50.426;15.352;2023-11-19T00:24:02;10.82;;;6.82;;
77798;SDS011;66989;50.426;15.352;2023-11-19T00:26:27;11.60;;;7.03;;
77798;SDS011;66989;50.426;15.352;2023-11-19T00:28:53;13.47;;;7.73;;
77798;SDS011;66989;50.426;15.352;2023-11-19T00:31:18;9.82;;;6.68;;
77798;SDS011;66989;50.426;15.352;2023-11-19T00:33:43;9.70;;;6.10;;
77798;SDS011;66989;50.426;15.352;2023-11-19T00:36:09;10.43;;;6.33;;
77798;SDS011;66989;50.426;15.352;2023-11-19T00:38:34;10.98;;;6.65;;
77798;SDS011;66989;50.426;15.352;2023-11-19T00:41:00;11.52;;;6.97;;
77798;SDS011;66989;50.426;15.352;2023-11-19T00:43:25;12.40;;;7.40;;
77798;SDS011;66989;50.426;15.352;2023-11-19T00:45:51;11.40;;;7.25;;
77798;SDS011;66989;50.426;15.352;2023-11-19T00:48:16;10.77;;;7.15;;
77798;SDS011;66989;50.426;15.352;2023-11-19T00:50:42;12.68;;;8.23;;
77798;SDS011;66989;50.426;15.352;2023-11-19T00:53:09;11.32;;;7.43;;
77798;SDS011;66989;50.426;15.352;2023-11-19T00:55:34;10.48;;;6.75;;
77798;SDS011;66989;50.426;15.352;2023-11-19T00:58:00;14.83;;;8.57;;
77798;SDS011;66989;50.426;15.352;2023-11-19T01:00:25;13.50;;;7.30;;
77798;SDS011;66989;50.426;15.352;2023-11-19T01:02:52;10.43;;;7.00;;
77798;SDS011;66989;50.426;15.352;2023-11-19T01:05:18;11.30;;;6.85;;
77798;SDS011;66989;50.426;15.352;2023-11-19T01:07:47;9.60;;;6.50;;
77798;SDS011;66989;50.426;15.352;2023-11-19T01:10:13;17.67;;;7.95;;
77798;SDS011;66989;50.426;15.352;2023-11-19T01:12:38;12.20;;;7.20;;
77798;SDS011;66989;50.426;15.352;2023-11-19T01:15:04;12.30;;;8.70;;
77798;SDS011;66989;50.426;15.352;2023-11-19T01:17:30;14.63;;;8.90;;
77798;SDS011;66989;50.426;15.352;2023-11-19T01:19:56;12.80;;;7.75;;
77798;SDS011;66989;50.426;15.352;2023-11-19T01:22:22;12.63;;;7.53;;
77798;SDS011;66989;50.426;15.352;2023-11-19T01:24:48;13.68;;;8.27;;
77798;SDS011;66989;50.426;15.352;2023-11-19T01:27:13;12.15;;;7.75;;
77798;SDS011;66989;50.426;15.352;2023-11-19T01:29:39;11.60;;;7.53;;
77798;SDS011;66989;50.426;15.352;2023-11-19T01:32:04;13.02;;;7.60;;
77798;SDS011;66989;50.426;15.352;2023-11-19T01:34:30;14.70;;;8.85;;
77798;SDS011;66989;50.426;15.352;2023-11-19T01:36:55;12.57;;;8.43;;
77798;SDS011;66989;50.426;15.352;2023-11-19T01:39:21;13.20;;;8.50;;
77798;SDS011;66989;50.426;15.352;2023-11-19T01:41:46;12.63;;;8.07;;
77798;SDS011;66989;50.426;15.352;2023-11-19T01:44:12;16.15;;;9.35;;
77798;SDS011;66989;50.426;15.352;2023-11-19T01:46:37;14.50;;;8.70;;
77798;SDS011;66989;50.426;15.352;2023-11-19T01:49:04;13.15;;;8.55;;
77798;SDS011;66989;50.426;15.352;2023-11-19T01:51:30;13.40;;;8.30;;
77798;SDS011;66989;50.426;15.352;2023-11-19T01:53:56;13.32;;;9.15;;
77798;SDS011;66989;50.426;15.352;2023-11-19T01:56:23;14.10;;;9.13;;
77798;SDS011;66989;50.426;15.352;2023-11-19T01:58:50;15.25;;;9.05;;
77798;SDS011;66989;50.426;15.352;2023-11-19T02:01:19;14.48;;;8.60;;
77798;SDS011;66989;50.426;15.352;2023-11-19T02:03:44;16.33;;;9.43;;
77798;SDS011;66989;50.426;15.352;2023-11-19T02:06:12;16.00;;;9.05;;
77798;SDS011;66989;50.426;15.352;2023-11-19T02:08:38;14.10;;;8.38;;
77798;SDS011;66989;50.426;15.352;2023-11-19T02:11:04;13.10;;;8.80;;
77798;SDS011;66989;50.426;15.352;2023-11-19T02:13:32;17.42;;;8.95;;
77798;SDS011;66989;50.426;15.352;2023-11-19T02:15:58;14.68;;;9.35;;
77798;SDS011;66989;50.426;15.352;2023-11-19T02:18:25;14.07;;;8.80;;
77798;SDS011;66989;50.426;15.352;2023-11-19T02:20:55;15.18;;;9.27;;
77798;SDS011;66989;50.426;15.352;2023-11-19T02:23:21;13.98;;;8.32;;
77798;SDS011;66989;50.426;15.352;2023-11-19T02:25:51;15.20;;;8.70;;
77798;SDS011;66989;50.426;15.352;2023-11-19T02:28:33;14.30;;;8.85;;
77798;SDS011;66989;50.426;15.352;2023-11-19T02:31:00;15.98;;;8.90;;
77798;SDS011;66989;50.426;15.352;2023-11-19T02:33:26;15.10;;;9.38;;
77798;SDS011;66989;50.426;15.352;2023-11-19T02:35:51;13.47;;;8.93;;
77798;SDS011;66989;50.426;15.352;2023-11-19T02:38:16;14.13;;;8.80;;
77798;SDS011;66989;50.426;15.352;2023-11-19T02:40:42;12.98;;;8.27;;
77798;SDS011;66989;50.426;15.352;2023-11-19T02:43:07;13.68;;;9.15;;
77798;SDS011;66989;50.426;15.352;2023-11-19T02:45:33;14.98;;;8.55;;
77798;SDS011;66989;50.426;15.352;2023-11-19T02:47:59;14.85;;;9.13;;
77798;SDS011;66989;50.426;15.352;2023-11-19T02:50:26;18.50;;;10.07;;
77798;SDS011;66989;50.426;15.352;2023-11-19T02:52:53;12.93;;;8.63;;
77798;SDS011;66989;50.426;15.352;2023-11-19T02:55:21;13.73;;;8.27;;
77798;SDS011;66989;50.426;15.352;2023-11-19T02:57:48;14.77;;;10.45;;
77798;SDS011;66989;50.426;15.352;2023-11-19T03:02:41;16.77;;;9.10;;
77798;SDS011;66989;50.426;15.352;2023-11-19T03:05:13;13.68;;;8.50;;
77798;SDS011;66989;50.426;15.352;2023-11-19T03:07:40;13.82;;;8.57;;
77798;SDS011;66989;50.426;15.352;2023-11-19T03:10:07;15.25;;;9.88;;
77798;SDS011;66989;50.426;15.352;2023-11-19T03:12:34;14.10;;;8.98;;
77798;SDS011;66989;50.426;15.352;2023-11-19T03:14:59;12.10;;;7.60;;
77798;SDS011;66989;50.426;15.352;2023-11-19T03:17:24;12.43;;;8.43;;
77798;SDS011;66989;50.426;15.352;2023-11-19T03:19:50;13.38;;;8.55;;
77798;SDS011;66989;50.426;15.352;2023-11-19T03:22:15;14.63;;;8.90;;
77798;SDS011;66989;50.426;15.352;2023-11-19T03:24:41;13.85;;;8.73;;
77798;SDS011;66989;50.426;15.352;2023-11-19T03:27:06;15.43;;;10.02;;
77798;SDS011;66989;50.426;15.352;2023-11-19T03:29:31;16.38;;;9.57;;
77798;SDS011;66989;50.426;15.352;2023-11-19T03:31:57;14.75;;;8.50;;
77798;SDS011;66989;50.426;15.352;2023-11-19T03:34:22;13.73;;;8.57;;
77798;SDS011;66989;50.426;15.352;2023-11-19T03:36:47;14.93;;;8.38;;
77798;SDS011;66989;50.426;15.352;2023-11-19T03:39:14;14.77;;;9.00;;
77798;SDS011;66989;50.426;15.352;2023-11-19T03:41:39;17.43;;;9.00;;
77798;SDS011;66989;50.426;15.352;2023-11-19T03:44:04;14.20;;;8.33;;
77798;SDS011;66989;50.426;15.352;2023-11-19T03:46:30;12.93;;;7.95;;
77798;SDS011;66989;50.426;15.352;2023-11-19T03:48:55;14.80;;;8.73;;
77798;SDS011;66989;50.426;15.352;2023-11-19T03:51:21;14.20;;;7.87;;
77798;SDS011;66989;50.426;15.352;2023-11-19T03:53:47;13.18;;;7.60;;
77798;SDS011;66989;50.426;15.352;2023-11-19T03:56:12;12.32;;;8.10;;
77798;SDS011;66989;50.426;15.352;2023-11-19T03:58:38;14.32;;;8.13;;
77798;SDS011;66989;50.426;15.352;2023-11-19T04:01:13;13.90;;;7.78;;
77798;SDS011;66989;50.426;15.352;2023-11-19T04:03:38;13.98;;;9.07;;
77798;SDS011;66989;50.426;15.352;2023-11-19T04:06:04;14.23;;;8.57;;
77798;SDS011;66989;50.426;15.352;2023-11-19T04:08:30;15.48;;;9.20;;
77798;SDS011;66989;50.426;15.352;2023-11-19T04:10:55;12.13;;;7.40;;
77798;SDS011;66989;50.426;15.352;2023-11-19T04:13:20;14.10;;;7.70;;
77798;SDS011;66989;50.426;15.352;2023-11-19T04:15:46;13.90;;;7.82;;
77798;SDS011;66989;50.426;15.352;2023-11-19T04:18:11;14.93;;;8.65;;
77798;SDS011;66989;50.426;15.352;2023-11-19T04:20:36;13.30;;;7.70;;
77798;SDS011;66989;50.426;15.352;2023-11-19T04:23:02;12.57;;;7.77;;
77798;SDS011;66989;50.426;15.352;2023-11-19T04:25:27;13.73;;;8.50;;
77798;SDS011;66989;50.426;15.352;2023-11-19T04:27:53;15.55;;;7.68;;
77798;SDS011;66989;50.426;15.352;2023-11-19T04:30:19;11.13;;;6.80;;
77798;SDS011;66989;50.426;15.352;2023-11-19T04:32:44;16.55;;;8.43;;
77798;SDS011;66989;50.426;15.352;2023-11-19T04:35:10;12.70;;;8.05;;
77798;SDS011;66989;50.426;15.352;2023-11-19T04:37:36;13.63;;;8.18;;
77798;SDS011;66989;50.426;15.352;2023-11-19T04:40:02;14.10;;;9.13;;
77798;SDS011;66989;50.426;15.352;2023-11-19T04:42:28;14.52;;;8.73;;
77798;SDS011;66989;50.426;15.352;2023-11-19T04:44:54;14.85;;;9.68;;
77798;SDS011;66989;50.426;15.352;2023-11-19T04:47:20;14.38;;;8.80;;
77798;SDS011;66989;50.426;15.352;2023-11-19T04:49:45;15.47;;;9.20;;
77798;SDS011;66989;50.426;15.352;2023-11-19T04:52:11;15.07;;;8.07;;
77798;SDS011;66989;50.426;15.352;2023-11-19T04:54:40;15.15;;;9.15;;
77798;SDS011;66989;50.426;15.352;2023-11-19T04:57:07;14.25;;;8.35;;
77798;SDS011;66989;50.426;15.352;2023-11-19T04:59:34;13.15;;;7.63;;
77798;SDS011;66989;50.426;15.352;2023-11-19T05:02:00;15.20;;;9.00;;
77798;SDS011;66989;50.426;15.352;2023-11-19T05:04:25;14.63;;;8.23;;
77798;SDS011;66989;50.426;15.352;2023-11-19T05:06:51;14.57;;;9.02;;
77798;SDS011;66989;50.426;15.352;2023-11-19T05:09:16;13.73;;;7.93;;
77798;SDS011;66989;50.426;15.352;2023-11-19T05:11:41;15.63;;;8.97;;
77798;SDS011;66989;50.426;15.352;2023-11-19T05:14:07;14.23;;;8.13;;
77798;SDS011;66989;50.426;15.352;2023-11-19T05:16:34;14.50;;;8.45;;
77798;SDS011;66989;50.426;15.352;2023-11-19T05:19:00;16.73;;;10.00;;
77798;SDS011;66989;50.426;15.352;2023-11-19T05:21:25;14.43;;;9.00;;
77798;SDS011;66989;50.426;15.352;2023-11-19T05:23:50;15.87;;;8.67;;
77798;SDS011;66989;50.426;15.352;2023-11-19T05:26:19;15.30;;;9.05;;
77798;SDS011;66989;50.426;15.352;2023-11-19T05:28:46;15.82;;;8.75;;
77798;SDS011;66989;50.426;15.352;2023-11-19T05:31:12;15.52;;;8.63;;
77798;SDS011;66989;50.426;15.352;2023-11-19T05:33:37;17.00;;;7.45;;
77798;SDS011;66989;50.426;15.352;2023-11-19T05:36:03;13.52;;;8.10;;
77798;SDS011;66989;50.426;15.352;2023-11-19T05:38:29;16.70;;;9.15;;
77798;SDS011;66989;50.426;15.352;2023-11-19T05:40:55;14.68;;;8.48;;
77798;SDS011;66989;50.426;15.352;2023-11-19T05:43:20;13.13;;;8.10;;
77798;SDS011;66989;50.426;15.352;2023-11-19T05:45:46;15.93;;;8.65;;
77798;SDS011;66989;50.426;15.352;2023-11-19T05:48:11;17.85;;;8.68;;
77798;SDS011;66989;50.426;15.352;2023-11-19T05:50:37;16.75;;;8.68;;
77798;SDS011;66989;50.426;15.352;2023-11-19T05:53:02;14.68;;;8.18;;
77798;SDS011;66989;50.426;15.352;2023-11-19T05:55:30;16.33;;;8.18;;
77798;SDS011;66989;50.426;15.352;2023-11-19T05:57:56;14.10;;;8.18;;
77798;SDS011;66989;50.426;15.352;2023-11-19T06:00:21;13.63;;;7.85;;
77798;SDS011;66989;50.426;15.352;2023-11-19T06:02:47;12.90;;;7.73;;
77798;SDS011;66989;50.426;15.352;2023-11-19T06:05:12;13.95;;;7.88;;
77798;SDS011;66989;50.426;15.352;2023-11-19T06:07:37;14.63;;;8.20;;
77798;SDS011;66989;50.426;15.352;2023-11-19T06:10:04;17.23;;;8.10;;
77798;SDS011;66989;50.426;15.352;2023-11-19T06:12:32;12.27;;;7.40;;
77798;SDS011;66989;50.426;15.352;2023-11-19T06:14:59;16.58;;;7.93;;
77798;SDS011;66989;50.426;15.352;2023-11-19T06:17:25;14.23;;;8.00;;
77798;SDS011;66989;50.426;15.352;2023-11-19T06:19:50;15.80;;;7.97;;
77798;SDS011;66989;50.426;15.352;2023-11-19T06:22:16;15.25;;;7.90;;
77798;SDS011;66989;50.426;15.352;2023-11-19T06:24:41;14.02;;;7.70;;
77798;SDS011;66989;50.426;15.352;2023-11-19T06:27:07;13.52;;;7.93;;
77798;SDS011;66989;50.426;15.352;2023-11-19T06:29:32;13.57;;;7.70;;
77798;SDS011;66989;50.426;15.352;2023-11-19T06:31:58;13.97;;;7.70;;
77798;SDS011;66989;50.426;15.352;2023-11-19T06:34:23;12.40;;;7.87;;
77798;SDS011;66989;50.426;15.352;2023-11-19T06:36:48;13.75;;;7.63;;
77798;SDS011;66989;50.426;15.352;2023-11-19T06:39:14;14.17;;;7.43;;
77798;SDS011;66989;50.426;15.352;2023-11-19T06:41:44;10.75;;;6.72;;
77798;SDS011;66989;50.426;15.352;2023-11-19T06:44:10;14.57;;;8.63;;
77798;SDS011;66989;50.426;15.352;2023-11-19T06:46:35;17.87;;;7.20;;
77798;SDS011;66989;50.426;15.352;2023-11-19T06:49:00;15.37;;;7.87;;
77798;SDS011;66989;50.426;15.352;2023-11-19T06:51:26;16.20;;;7.90;;
77798;SDS011;66989;50.426;15.352;2023-11-19T06:53:51;14.52;;;8.43;;
77798;SDS011;66989;50.426;15.352;2023-11-19T06:56:18;15.55;;;8.70;;
77798;SDS011;66989;50.426;15.352;2023-11-19T06:58:45;17.77;;;9.88;;
77798;SDS011;66989;50.426;15.352;2023-11-19T07:01:10;16.73;;;8.20;;
77798;SDS011;66989;50.426;15.352;2023-11-19T07:03:36;16.13;;;9.45;;
77798;SDS011;66989;50.426;15.352;2023-11-19T07:06:01;15.05;;;8.82;;
77798;SDS011;66989;50.426;15.352;2023-11-19T07:08:30;13.98;;;7.95;;
77798;SDS011;66989;50.426;15.352;2023-11-19T07:10:55;14.03;;;8.77;;
77798;SDS011;66989;50.426;15.352;2023-11-19T07:13:21;14.87;;;8.37;;
77798;SDS011;66989;50.426;15.352;2023-11-19T07:15:46;18.47;;;10.63;;
77798;SDS011;66989;50.426;15.352;2023-11-19T07:18:11;14.25;;;8.88;;
77798;SDS011;66989;50.426;15.352;2023-11-19T07:20:37;16.13;;;9.52;;
77798;SDS011;66989;50.426;15.352;2023-11-19T07:23:03;14.82;;;8.80;;
77798;SDS011;66989;50.426;15.352;2023-11-19T07:25:29;15.18;;;8.43;;
77798;SDS011;66989;50.426;15.352;2023-11-19T07:27:54;15.40;;;8.90;;
77798;SDS011;66989;50.426;15.352;2023-11-19T07:30:21;15.07;;;8.70;;
77798;SDS011;66989;50.426;15.352;2023-11-19T07:32:47;13.77;;;8.00;;
77798;SDS011;66989;50.426;15.352;2023-11-19T07:35:14;14.23;;;7.85;;
77798;SDS011;66989;50.426;15.352;2023-11-19T07:40:07;18.92;;;9.23;;
77798;SDS011;66989;50.426;15.352;2023-11-19T07:42:33;12.75;;;8.15;;
77798;SDS011;66989;50.426;15.352;2023-11-19T07:44:58;15.43;;;9.13;;
77798;SDS011;66989;50.426;15.352;2023-11-19T07:47:24;14.00;;;7.88;;
77798;SDS011;66989;50.426;15.352;2023-11-19T07:49:50;15.40;;;8.52;;
77798;SDS011;66989;50.426;15.352;2023-11-19T07:52:15;14.27;;;7.55;;
77798;SDS011;66989;50.426;15.352;2023-11-19T07:54:41;15.65;;;8.38;;
77798;SDS011;66989;50.426;15.352;2023-11-19T07:57:06;14.32;;;8.60;;
77798;SDS011;66989;50.426;15.352;2023-11-19T07:59:31;16.83;;;9.40;;
77798;SDS011;66989;50.426;15.352;2023-11-19T08:01:57;16.63;;;9.55;;
77798;SDS011;66989;50.426;15.352;2023-11-19T08:04:23;13.90;;;8.07;;
77798;SDS011;66989;50.426;15.352;2023-11-19T08:06:49;19.17;;;9.27;;
77798;SDS011;66989;50.426;15.352;2023-11-19T08:09:14;14.98;;;8.77;;
77798;SDS011;66989;50.426;15.352;2023-11-19T08:11:40;15.05;;;8.57;;
77798;SDS011;66989;50.426;15.352;2023-11-19T08:14:06;15.48;;;8.13;;
77798;SDS011;66989;50.426;15.352;2023-11-19T08:16:32;15.38;;;7.63;;
77798;SDS011;66989;50.426;15.352;2023-11-19T08:18:57;14.48;;;8.73;;
77798;SDS011;66989;50.426;15.352;2023-11-19T08:21:23;13.68;;;8.10;;
77798;SDS011;66989;50.426;15.352;2023-11-19T08:23:49;14.00;;;8.25;;
77798;SDS011;66989;50.426;15.352;2023-11-19T08:26:14;18.33;;;9.02;;
77798;SDS011;66989;50.426;15.352;2023-11-19T08:28:40;16.92;;;9.05;;
77798;SDS011;66989;50.426;15.352;2023-11-19T08:31:06;16.30;;;8.73;;
77798;SDS011;66989;50.426;15.352;2023-11-19T08:33:32;14.57;;;8.82;;
77798;SDS011;66989;50.426;15.352;2023-11-19T08:35:57;17.08;;;8.98;;
77798;SDS011;66989;50.426;15.352;2023-11-19T08:38:23;12.10;;;7.40;;
77798;SDS011;66989;50.426;15.352;2023-11-19T08:40:49;13.85;;;8.55;;
77798;SDS011;66989;50.426;15.352;2023-11-19T08:43:14;15.52;;;8.63;;
77798;SDS011;66989;50.426;15.352;2023-11-19T08:45:41;14.50;;;9.05;;
77798;SDS011;66989;50.426;15.352;2023-11-19T08:48:06;15.57;;;8.80;;
77798;SDS011;66989;50.426;15.352;2023-11-19T08:50:31;16.27;;;8.27;;
77798;SDS011;66989;50.426;15.352;2023-11-19T08:52:57;14.23;;;7.93;;
77798;SDS011;66989;50.426;15.352;2023-11-19T08:55:23;13.77;;;8.25;;
77798;SDS011;66989;50.426;15.352;2023-11-19T08:57:48;13.60;;;7.80;;
77798;SDS011;66989;50.426;15.352;2023-11-19T09:00:14;14.27;;;9.13;;
77798;SDS011;66989;50.426;15.352;2023-11-19T09:02:39;13.32;;;7.88;;
77798;SDS011;66989;50.426;15.352;2023-11-19T09:05:05;13.52;;;7.80;;
77798;SDS011;66989;50.426;15.352;2023-11-19T09:07:33;13.35;;;7.88;;
77798;SDS011;66989;50.426;15.352;2023-11-19T09:09:59;12.75;;;7.72;;
77798;SDS011;66989;50.426;15.352;2023-11-19T09:12:24;14.40;;;8.40;;
77798;SDS011;66989;50.426;15.352;2023-11-19T09:14:50;13.20;;;7.55;;
77798;SDS011;66989;50.426;15.352;2023-11-19T09:17:15;11.32;;;7.25;;
77798;SDS011;66989;50.426;15.352;2023-11-19T09:19:42;11.85;;;7.40;;
77798;SDS011;66989;50.426;15.352;2023-11-19T09:22:07;11.82;;;7.72;;
77798;SDS011;66989;50.426;15.352;2023-11-19T09:24:33;10.40;;;6.97;;
77798;SDS011;66989;50.426;15.352;2023-11-19T09:26:58;10.97;;;7.07;;
77798;SDS011;66989;50.426;15.352;2023-11-19T09:29:31;11.40;;;6.65;;
77798;SDS011;66989;50.426;15.352;2023-11-19T09:31:56;13.20;;;7.95;;
77798;SDS011;66989;50.426;15.352;2023-11-19T09:34:22;12.60;;;8.37;;
77798;SDS011;66989;50.426;15.352;2023-11-19T09:36:47;13.65;;;8.25;;
77798;SDS011;66989;50.426;15.352;2023-11-19T09:39:12;11.88;;;7.70;;
77798;SDS011;66989;50.426;15.352;2023-11-19T09:41:41;12.27;;;7.63;;
77798;SDS011;66989;50.426;15.352;2023-11-19T09:44:07;10.63;;;7.10;;
77798;SDS011;66989;50.426;15.352;2023-11-19T09:46:33;11.80;;;7.43;;
77798;SDS011;66989;50.426;15.352;2023-11-19T09:49:00;12.05;;;7.90;;
77798;SDS011;66989;50.426;15.352;2023-11-19T09:51:28;14.05;;;8.07;;
77798;SDS011;66989;50.426;15.352;2023-11-19T09:53:54;14.63;;;8.50;;
77798;SDS011;66989;50.426;15.352;2023-11-19T09:56:19;11.57;;;7.50;;
77798;SDS011;66989;50.426;15.352;2023-11-19T09:58:45;9.35;;;6.47;;
77798;SDS011;66989;50.426;15.352;2023-11-19T10:01:11;11.95;;;6.97;;
77798;SDS011;66989;50.426;15.352;2023-11-19T10:03:37;11.80;;;6.82;;
77798;SDS011;66989;50.426;15.352;2023-11-19T10:06:09;11.45;;;7.47;;
77798;SDS011;66989;50.426;15.352;2023-11-19T10:08:39;10.63;;;7.18;;
77798;SDS011;66989;50.426;15.352;2023-11-19T10:11:08;10.38;;;6.05;;
77798;SDS011;66989;50.426;15.352;2023-11-19T10:13:35;8.60;;;5.60;;
77798;SDS011;66989;50.426;15.352;2023-11-19T10:16:12;10.18;;;6.80;;
77798;SDS011;66989;50.426;15.352;2023-11-19T10:18:48;9.95;;;6.07;;
77798;SDS011;66989;50.426;15.352;2023-11-19T10:21:17;9.80;;;6.32;;
77798;SDS011;66989;50.426;15.352;2023-11-19T10:23:50;9.93;;;5.82;;
77798;SDS011;66989;50.426;15.352;2023-11-19T10:26:17;9.73;;;5.47;;
77798;SDS011;66989;50.426;15.352;2023-11-19T10:28:43;9.45;;;5.18;;
77798;SDS011;66989;50.426;15.352;2023-11-19T10:31:18;10.88;;;5.95;;
77798;SDS011;66989;50.426;15.352;2023-11-19T10:33:44;9.20;;;5.20;;
77798;SDS011;66989;50.426;15.352;2023-11-19T10:36:14;10.10;;;5.38;;
77798;SDS011;66989;50.426;15.352;2023-11-19T10:38:39;11.65;;;5.72;;
77798;SDS011;66989;50.426;15.352;2023-11-19T10:41:06;12.77;;;6.40;;
77798;SDS011;66989;50.426;15.352;2023-11-19T10:43:41;9.30;;;5.50;;
77798;SDS011;66989;50.426;15.352;2023-11-19T10:46:10;8.52;;;5.05;;
77798;SDS011;66989;50.426;15.352;2023-11-19T10:48:36;8.07;;;4.80;;
77798;SDS011;66989;50.426;15.352;2023-11-19T10:51:02;8.50;;;4.57;;
77798;SDS011;66989;50.426;15.352;2023-11-19T10:53:33;6.40;;;3.72;;
77798;SDS011;66989;50.426;15.352;2023-11-19T10:56:01;6.72;;;4.43;;
77798;SDS011;66989;50.426;15.352;2023-11-19T10:58:29;6.22;;;4.25;;
77798;SDS011;66989;50.426;15.352;2023-11-19T11:00:57;4.93;;;3.13;;
77798;SDS011;66989;50.426;15.352;2023-11-19T11:03:29;7.68;;;5.35;;
77798;SDS011;66989;50.426;15.352;2023-11-19T11:06:04;6.07;;;3.97;;
77798;SDS011;66989;50.426;15.352;2023-11-19T11:08:30;7.05;;;4.60;;
77798;SDS011;66989;50.426;15.352;2023-11-19T11:10:56;6.18;;;4.15;;
77798;SDS011;66989;50.426;15.352;2023-11-19T11:13:26;8.35;;;4.57;;
77798;SDS011;66989;50.426;15.352;2023-11-19T11:15:56;10.38;;;6.10;;
77798;SDS011;66989;50.426;15.352;2023-11-19T11:18:25;6.22;;;4.45;;
77798;SDS011;66989;50.426;15.352;2023-11-19T11:20:58;7.47;;;4.50;;
77798;SDS011;66989;50.426;15.352;2023-11-19T11:26:28;8.30;;;4.75;;
77798;SDS011;66989;50.426;15.352;2023-11-19T11:31:58;6.00;;;4.13;;
77798;SDS011;66989;50.426;15.352;2023-11-19T11:34:38;21.17;;;11.77;;
77798;SDS011;66989;50.426;15.352;2023-11-19T11:39:46;8.73;;;4.90;;
77798;SDS011;66989;50.426;15.352;2023-11-19T11:45:00;9.82;;;5.50;;
77798;SDS011;66989;50.426;15.352;2023-11-19T11:50:08;9.60;;;5.82;;
77798;SDS011;66989;50.426;15.352;2023-11-19T11:55:19;8.48;;;5.70;;
77798;SDS011;66989;50.426;15.352;2023-11-19T11:57:49;13.43;;;7.85;;
77798;SDS011;66989;50.426;15.352;2023-11-19T12:00:29;7.78;;;5.10;;
77798;SDS011;66989;50.426;15.352;2023-11-19T12:02:55;6.97;;;4.47;;
77798;SDS011;66989;50.426;15.352;2023-11-19T12:05:22;7.32;;;4.20;;
77798;SDS011;66989;50.426;15.352;2023-11-19T12:07:54;11.57;;;7.03;;
77798;SDS011;66989;50.426;15.352;2023-11-19T12:10:22;9.60;;;5.25;;
77798;SDS011;66989;50.426;15.352;2023-11-19T12:12:52;7.63;;;4.93;;
77798;SDS011;66989;50.426;15.352;2023-11-19T12:15:18;9.50;;;4.18;;
77798;SDS011;66989;50.426;15.352;2023-11-19T12:17:48;9.93;;;6.00;;
77798;SDS011;66989;50.426;15.352;2023-11-19T12:20:15;8.10;;;5.35;;
77798;SDS011;66989;50.426;15.352;2023-11-19T12:22:42;9.27;;;5.85;;
77798;SDS011;66989;50.426;15.352;2023-11-19T12:25:08;9.52;;;5.18;;
77798;SDS011;66989;50.426;15.352;2023-11-19T12:27:45;7.30;;;4.68;;
77798;SDS011;66989;50.426;15.352;2023-11-19T12:30:32;7.97;;;5.18;;
77798;SDS011;66989;50.426;15.352;2023-11-19T12:32:57;8.70;;;4.88;;
77798;SDS011;66989;50.426;15.352;2023-11-19T12:35:23;8.30;;;5.67;;
77798;SDS011;66989;50.426;15.352;2023-11-19T12:37:51;7.57;;;5.22;;
77798;SDS011;66989;50.426;15.352;2023-11-19T12:40:23;9.00;;;4.97;;
77798;SDS011;66989;50.426;15.352;2023-11-19T12:42:50;9.60;;;5.10;;
77798;SDS011;66989;50.426;15.352;2023-11-19T12:45:18;8.13;;;5.35;;
77798;SDS011;66989;50.426;15.352;2023-11-19T12:47:45;11.70;;;5.05;;
77798;SDS011;66989;50.426;15.352;2023-11-19T12:50:14;11.75;;;7.43;;
77798;SDS011;66989;50.426;15.352;2023-11-19T12:52:42;13.90;;;8.65;;
77798;SDS011;66989;50.426;15.352;2023-11-19T12:57:52;7.53;;;4.53;;
77798;SDS011;66989;50.426;15.352;2023-11-19T13:00:20;7.18;;;4.93;;
77798;SDS011;66989;50.426;15.352;2023-11-19T13:02:47;7.38;;;4.68;;
77798;SDS011;66989;50.426;15.352;2023-11-19T13:05:20;7.35;;;4.65;;
77798;SDS011;66989;50.426;15.352;2023-11-19T13:07:49;7.65;;;4.35;;
77798;SDS011;66989;50.426;15.352;2023-11-19T13:10:15;7.07;;;4.95;;
77798;SDS011;66989;50.426;15.352;2023-11-19T13:12:40;6.88;;;5.10;;
77798;SDS011;66989;50.426;15.352;2023-11-19T13:15:06;9.20;;;5.78;;
77798;SDS011;66989;50.426;15.352;2023-11-19T13:17:32;6.32;;;4.20;;
77798;SDS011;66989;50.426;15.352;2023-11-19T13:19:57;6.45;;;3.90;;
77798;SDS011;66989;50.426;15.352;2023-11-19T13:22:22;8.07;;;4.53;;
77798;SDS011;66989;50.426;15.352;2023-11-19T13:24:48;7.63;;;4.07;;
77798;SDS011;66989;50.426;15.352;2023-11-19T13:27:13;7.43;;;4.57;;
77798;SDS011;66989;50.426;15.352;2023-11-19T13:29:39;7.00;;;5.03;;
77798;SDS011;66989;50.426;15.352;2023-11-19T13:32:04;9.88;;;5.22;;
77798;SDS011;66989;50.426;15.352;2023-11-19T13:34:30;7.63;;;4.60;;
77798;SDS011;66989;50.426;15.352;2023-11-19T13:36:56;6.65;;;4.65;;
77798;SDS011;66989;50.426;15.352;2023-11-19T13:39:21;6.85;;;3.80;;
77798;SDS011;66989;50.426;15.352;2023-11-19T13:41:48;7.47;;;4.85;;
77798;SDS011;66989;50.426;15.352;2023-11-19T13:44:15;6.43;;;3.40;;
77798;SDS011;66989;50.426;15.352;2023-11-19T13:46:41;6.53;;;3.92;;
77798;SDS011;66989;50.426;15.352;2023-11-19T13:49:06;7.28;;;3.72;;
77798;SDS011;66989;50.426;15.352;2023-11-19T13:51:32;6.43;;;3.70;;
77798;SDS011;66989;50.426;15.352;2023-11-19T13:53:57;7.22;;;4.53;;
77798;SDS011;66989;50.426;15.352;2023-11-19T13:56:23;5.72;;;3.22;;
77798;SDS011;66989;50.426;15.352;2023-11-19T13:58:50;6.37;;;4.00;;
77798;SDS011;66989;50.426;15.352;2023-11-19T14:01:15;6.82;;;3.20;;
77798;SDS011;66989;50.426;15.352;2023-11-19T14:03:41;7.38;;;3.92;;
77798;SDS011;66989;50.426;15.352;2023-11-19T14:06:06;7.95;;;4.00;;
77798;SDS011;66989;50.426;15.352;2023-11-19T14:08:33;7.50;;;4.60;;
77798;SDS011;66989;50.426;15.352;2023-11-19T14:10:58;6.13;;;4.03;;
77798;SDS011;66989;50.426;15.352;2023-11-19T14:13:24;7.53;;;5.43;;
77798;SDS011;66989;50.426;15.352;2023-11-19T14:15:49;6.65;;;3.63;;
77798;SDS011;66989;50.426;15.352;2023-11-19T14:18:15;4.00;;;2.63;;
77798;SDS011;66989;50.426;15.352;2023-11-19T14:20:40;8.05;;;4.35;;
77798;SDS011;66989;50.426;15.352;2023-11-19T14:23:06;7.60;;;4.22;;
77798;SDS011;66989;50.426;15.352;2023-11-19T14:25:31;6.57;;;4.20;;
77798;SDS011;66989;50.426;15.352;2023-11-19T14:27:56;5.60;;;3.63;;
77798;SDS011;66989;50.426;15.352;2023-11-19T14:30:22;6.10;;;3.42;;
77798;SDS011;66989;50.426;15.352;2023-11-19T14:32:48;4.03;;;2.33;;
77798;SDS011;66989;50.426;15.352;2023-11-19T14:35:14;3.85;;;2.17;;
77798;SDS011;66989;50.426;15.352;2023-11-19T14:37:40;4.57;;;3.03;;
77798;SDS011;66989;50.426;15.352;2023-11-19T14:40:05;12.27;;;7.32;;
77798;SDS011;66989;50.426;15.352;2023-11-19T14:42:33;6.90;;;3.45;;
77798;SDS011;66989;50.426;15.352;2023-11-19T14:44:59;7.32;;;3.97;;
77798;SDS011;66989;50.426;15.352;2023-11-19T14:47:24;6.37;;;2.83;;